createdAt,value
2018-01-16T00:00:41.457Z,956.05
2018-01-16T00:01:51.435Z,956.1
2018-01-16T00:03:01.145Z,955.94
2018-01-16T00:04:10.378Z,955.95
2018-01-16T00:05:20.087Z,955.83
2018-01-16T00:06:30.062Z,955.89
2018-01-16T00:07:39.772Z,955.85
2018-01-16T00:08:49.751Z,955.91
2018-01-16T00:09:59.780Z,955.75
2018-01-16T00:11:09.793Z,955.8
2018-01-16T00:12:19.502Z,955.8
2018-01-16T00:13:29.218Z,955.78
2018-01-16T00:14:39.203Z,955.86
2018-01-16T00:15:49.182Z,955.84
2018-01-16T00:16:58.894Z,955.58
2018-01-16T00:18:08.338Z,955.82
2018-01-16T00:19:17.883Z,955.6
2018-01-16T00:20:27.865Z,955.74
2018-01-16T00:21:37.574Z,955.79
2018-01-16T00:22:47.292Z,955.76
2018-01-16T00:23:57.011Z,955.69
2018-01-16T00:25:06.985Z,955.73
2018-01-16T00:26:16.960Z,955.71
2018-01-16T00:27:26.939Z,955.67
2018-01-16T00:28:36.650Z,955.68
2018-01-16T00:29:46.626Z,955.59
2018-01-16T00:30:56.665Z,955.64
2018-01-16T00:32:06.641Z,955.74
2018-01-16T00:33:16.090Z,955.68
2018-01-16T00:34:26.065Z,955.58
2018-01-16T00:35:36.039Z,955.59
2018-01-16T00:36:46.011Z,955.52
2018-01-16T00:37:55.726Z,955.57
2018-01-16T00:39:05.440Z,955.53
2018-01-16T00:40:15.162Z,955.62
2018-01-16T00:41:25.137Z,955.44
2018-01-16T00:42:34.590Z,955.38
2018-01-16T00:43:44.560Z,955.18
2018-01-16T00:44:54.017Z,955.27
2018-01-16T00:46:03.734Z,955.46
2018-01-16T00:47:13.709Z,955.37
2018-01-16T00:48:23.693Z,955.4
2018-01-16T00:49:33.680Z,955.3
2018-01-16T00:50:43.389Z,955.41
2018-01-16T00:51:53.104Z,955.33
2018-01-16T00:53:03.083Z,955.38
2018-01-16T00:54:13.061Z,955.3
2018-01-16T00:55:23.034Z,955.26
2018-01-16T00:56:33.011Z,955.31
2018-01-16T00:57:42.719Z,955.2
2018-01-16T00:58:52.703Z,955.33
2018-01-16T01:00:02.462Z,955.22
2018-01-16T01:01:12.176Z,955.26
2018-01-16T01:02:22.149Z,955.15
2018-01-16T01:03:32.130Z,955.05
2018-01-16T01:04:41.847Z,955.1
2018-01-16T01:05:51.030Z,955.17
2018-01-16T01:07:00.742Z,955.1
2018-01-16T01:08:10.232Z,955.01
2018-01-16T01:09:20.210Z,955.18
2018-01-16T01:10:29.924Z,955.16
2018-01-16T01:11:39.903Z,955.16
2018-01-16T01:12:49.613Z,955.16
2018-01-16T01:13:59.343Z,955.14
2018-01-16T01:15:09.061Z,955.13
2018-01-16T01:16:18.771Z,955.04
2018-01-16T01:17:28.747Z,954.95
2018-01-16T01:18:38.720Z,955.07
2018-01-16T01:19:48.177Z,955.03
2018-01-16T01:20:57.891Z,955.03
2018-01-16T01:22:07.869Z,954.92
2018-01-16T01:23:17.678Z,954.83
2018-01-16T01:24:27.390Z,954.91
2018-01-16T01:25:37.097Z,954.8
2018-01-16T01:26:46.806Z,954.75
2018-01-16T01:27:56.518Z,954.73
2018-01-16T01:29:05.965Z,954.72
2018-01-16T01:30:15.676Z,954.71
2018-01-16T01:31:25.659Z,954.71
2018-01-16T01:32:35.371Z,954.67
2018-01-16T01:33:45.082Z,954.57
2018-01-16T01:34:55.111Z,954.52
2018-01-16T01:36:05.086Z,954.49
2018-01-16T01:37:14.267Z,954.42
2018-01-16T01:38:24.244Z,954.47
2018-01-16T01:39:33.954Z,954.45
2018-01-16T01:40:43.669Z,954.4
2018-01-16T01:41:53.116Z,954.41
2018-01-16T01:43:02.829Z,954.39
2018-01-16T01:44:12.544Z,954.41
2018-01-16T01:45:22.516Z,954.33
2018-01-16T01:46:32.487Z,954.35
2018-01-16T01:47:42.460Z,954.32
2018-01-16T01:48:52.434Z,954.25
2018-01-16T01:50:02.144Z,954.21
2018-01-16T01:51:11.859Z,954.19
2018-01-16T01:52:21.833Z,954.15
2018-01-16T01:53:31.810Z,954.17
2018-01-16T01:54:41.790Z,954.08
2018-01-16T01:55:51.234Z,953.94
2018-01-16T01:57:00.948Z,954.12
2018-01-16T01:58:10.671Z,954.05
2018-01-16T01:59:20.384Z,953.94
2018-01-16T02:00:30.092Z,953.96
2018-01-16T02:01:40.065Z,953.96
2018-01-16T02:02:50.037Z,954.01
2018-01-16T02:04:00.020Z,953.88
2018-01-16T02:05:09.746Z,953.89
2018-01-16T02:06:19.727Z,953.84
2018-01-16T02:07:29.701Z,953.85
2018-01-16T02:08:39.408Z,953.86
2018-01-16T02:09:48.852Z,953.8
2018-01-16T02:10:58.565Z,953.79
2018-01-16T02:12:08.545Z,953.74
2018-01-16T02:13:18.254Z,953.7
2018-01-16T02:14:28.285Z,953.7
2018-01-16T02:15:38.313Z,953.64
2018-01-16T02:16:48.286Z,953.6
2018-01-16T02:17:57.998Z,953.55
2018-01-16T02:19:07.750Z,953.59
2018-01-16T02:20:17.723Z,953.59
2018-01-16T02:21:27.439Z,953.57
2018-01-16T02:22:37.151Z,953.53
2018-01-16T02:23:47.124Z,953.54
2018-01-16T02:24:57.101Z,953.44
2018-01-16T02:26:07.096Z,953.49
2018-01-16T02:27:16.639Z,953.46
2018-01-16T02:28:26.347Z,953.47
2018-01-16T02:29:36.323Z,953.42
2018-01-16T02:30:46.298Z,953.39
2018-01-16T02:31:56.272Z,953.35
2018-01-16T02:33:05.721Z,953.31
2018-01-16T02:34:15.702Z,953.22
2018-01-16T02:35:25.157Z,953.23
2018-01-16T02:36:34.870Z,953.13
2018-01-16T02:37:44.588Z,953.09
2018-01-16T02:38:54.613Z,953.11
2018-01-16T02:40:04.326Z,953.11
2018-01-16T02:41:14.321Z,953.1
2018-01-16T02:42:24.340Z,953.03
2018-01-16T02:43:34.054Z,952.98
2018-01-16T02:44:44.040Z,953
2018-01-16T02:45:53.777Z,952.99
2018-01-16T02:47:03.503Z,952.93
2018-01-16T02:48:13.493Z,952.88
2018-01-16T02:49:23.474Z,952.84
2018-01-16T02:50:33.470Z,952.79
2018-01-16T02:51:43.239Z,952.85
2018-01-16T02:52:53.218Z,952.85
2018-01-16T02:54:03.193Z,952.83
2018-01-16T02:55:12.909Z,952.79
2018-01-16T02:56:22.361Z,952.8
2018-01-16T02:57:32.336Z,952.74
2018-01-16T02:58:42.311Z,952.68
2018-01-16T02:59:52.286Z,952.66
2018-01-16T03:01:02.259Z,952.67
2018-01-16T03:02:12.240Z,952.64
2018-01-16T03:03:21.951Z,952.65
2018-01-16T03:04:31.931Z,952.58
2018-01-16T03:05:41.642Z,952.59
2018-01-16T03:06:51.350Z,952.53
2018-01-16T03:08:01.209Z,952.54
2018-01-16T03:09:11.186Z,952.51
2018-01-16T03:10:21.163Z,952.52
2018-01-16T03:11:30.872Z,952.42
2018-01-16T03:12:40.324Z,952.36
2018-01-16T03:13:50.348Z,952.42
2018-01-16T03:15:00.326Z,952.36
2018-01-16T03:16:10.042Z,952.35
2018-01-16T03:17:20.023Z,952.29
2018-01-16T03:18:29.789Z,952.33
2018-01-16T03:19:39.769Z,952.24
2018-01-16T03:20:49.215Z,952.22
2018-01-16T03:21:59.188Z,952.2
2018-01-16T03:23:09.162Z,952.18
2018-01-16T03:24:18.868Z,952.22
2018-01-16T03:25:28.896Z,952.2
2018-01-16T03:26:38.880Z,952.08
2018-01-16T03:27:48.858Z,952.03
2018-01-16T03:28:58.567Z,952
2018-01-16T03:30:08.547Z,952.04
2018-01-16T03:31:18.533Z,952.01
2018-01-16T03:32:28.526Z,952.07
2018-01-16T03:33:38.240Z,952.03
2018-01-16T03:34:48.214Z,952
2018-01-16T03:35:57.926Z,952.05
2018-01-16T03:37:07.683Z,952
2018-01-16T03:38:17.399Z,951.93
2018-01-16T03:39:27.387Z,951.85
2018-01-16T03:40:37.095Z,951.89
2018-01-16T03:41:46.546Z,951.93
2018-01-16T03:42:56.261Z,951.94
2018-01-16T03:44:06.234Z,951.92
2018-01-16T03:45:15.944Z,951.91
2018-01-16T03:46:25.658Z,951.84
2018-01-16T03:47:35.634Z,951.87
2018-01-16T03:48:45.614Z,951.87
2018-01-16T03:49:55.650Z,951.84
2018-01-16T03:51:05.624Z,951.76
2018-01-16T03:52:15.345Z,951.78
2018-01-16T03:53:25.319Z,951.77
2018-01-16T03:54:35.079Z,951.75
2018-01-16T03:55:45.055Z,951.76
2018-01-16T03:56:54.502Z,951.65
2018-01-16T03:58:04.480Z,951.66
2018-01-16T03:59:14.456Z,951.59
2018-01-16T04:04:30.756Z,951.6
2018-01-16T04:05:40.729Z,951.52
2018-01-16T04:06:50.438Z,951.5
2018-01-16T04:08:00.158Z,951.47
2018-01-16T04:09:09.865Z,951.45
2018-01-16T04:10:19.578Z,951.43
2018-01-16T04:11:29.559Z,951.31
2018-01-16T04:12:39.529Z,951.41
2018-01-16T04:13:49.503Z,951.39
2018-01-16T04:14:59.215Z,951.37
2018-01-16T04:16:09.193Z,951.36
2018-01-16T04:17:18.903Z,951.24
2018-01-16T04:18:28.878Z,951.28
2018-01-16T04:19:38.855Z,951.25
2018-01-16T04:20:48.566Z,951.21
2018-01-16T04:21:58.275Z,951.16
2018-01-16T04:23:08.247Z,951.15
2018-01-16T04:24:17.954Z,951.16
2018-01-16T04:25:27.663Z,951.15
2018-01-16T04:26:37.637Z,951.14
2018-01-16T04:27:47.345Z,951.07
2018-01-16T04:28:56.790Z,951.12
2018-01-16T04:30:06.500Z,951.02
2018-01-16T04:31:15.951Z,950.99
2018-01-16T04:32:25.664Z,950.99
2018-01-16T04:33:35.646Z,950.98
2018-01-16T04:34:45.354Z,950.95
2018-01-16T04:35:55.338Z,950.99
2018-01-16T04:37:05.054Z,950.94
2018-01-16T04:38:14.863Z,950.95
2018-01-16T04:39:24.841Z,950.87
2018-01-16T04:40:34.552Z,950.89
2018-01-16T04:41:44.262Z,950.88
2018-01-16T04:42:53.710Z,950.86
2018-01-16T04:44:03.684Z,950.84
2018-01-16T04:45:13.657Z,950.75
2018-01-16T04:46:23.372Z,950.7
2018-01-16T04:47:33.349Z,950.72
2018-01-16T04:48:43.324Z,950.8
2018-01-16T04:49:53.307Z,950.72
2018-01-16T04:51:03.017Z,950.73
2018-01-16T04:52:12.990Z,950.65
2018-01-16T04:53:22.704Z,950.67
2018-01-16T04:54:32.415Z,950.65
2018-01-16T04:55:42.389Z,950.62
2018-01-16T04:56:51.838Z,950.54
2018-01-16T04:58:01.855Z,950.51
2018-01-16T04:59:11.574Z,950.52
2018-01-16T05:00:21.337Z,950.39
2018-01-16T05:01:31.360Z,950.46
2018-01-16T05:02:41.067Z,950.47
2018-01-16T05:03:51.054Z,950.48
2018-01-16T05:05:00.506Z,950.4
2018-01-16T05:06:10.521Z,950.41
2018-01-16T05:07:20.631Z,950.2
2018-01-16T05:08:30.603Z,950.35
2018-01-16T05:09:40.049Z,950.31
2018-01-16T05:10:49.491Z,950.29
2018-01-16T05:11:59.205Z,950.31
2018-01-16T05:13:08.916Z,950.26
2018-01-16T05:14:18.903Z,950.28
2018-01-16T05:15:28.874Z,950.2
2018-01-16T05:16:38.056Z,950.25
2018-01-16T05:17:48.042Z,950.21
2018-01-16T05:18:57.647Z,950.2
2018-01-16T05:20:07.632Z,950.18
2018-01-16T05:21:17.605Z,950.22
2018-01-16T05:22:27.578Z,950.23
2018-01-16T05:23:37.286Z,950.24
2018-01-16T05:24:47.262Z,950.14
2018-01-16T05:25:57.235Z,950.11
2018-01-16T05:27:06.951Z,950.14
2018-01-16T05:28:16.927Z,950.1
2018-01-16T05:29:26.640Z,950.08
2018-01-16T05:30:36.663Z,950.09
2018-01-16T05:31:46.642Z,949.98
2018-01-16T05:32:56.619Z,950.02
2018-01-16T05:34:06.591Z,949.96
2018-01-16T05:35:16.564Z,950.01
2018-01-16T05:36:26.275Z,949.95
2018-01-16T05:37:36.251Z,949.88
2018-01-16T05:38:46.227Z,949.93
2018-01-16T05:39:56.201Z,949.89
2018-01-16T05:41:05.944Z,949.93
2018-01-16T05:42:15.706Z,949.93
2018-01-16T05:43:25.731Z,949.9
2018-01-16T05:44:35.707Z,949.8
2018-01-16T05:45:45.684Z,949.89
2018-01-16T05:46:55.394Z,949.86
2018-01-16T05:48:05.367Z,949.78
2018-01-16T05:49:15.088Z,949.78
2018-01-16T05:50:24.806Z,949.74
2018-01-16T05:51:34.513Z,949.79
2018-01-16T05:52:44.225Z,949.8
2018-01-16T05:53:54.203Z,949.74
2018-01-16T05:55:04.197Z,949.7
2018-01-16T05:56:14.173Z,949.72
2018-01-16T05:57:24.151Z,949.71
2018-01-16T05:58:34.137Z,949.6
2018-01-16T05:59:44.112Z,949.68
2018-01-16T06:00:54.086Z,949.63
2018-01-16T06:02:04.063Z,949.69
2018-01-16T06:03:13.512Z,949.63
2018-01-16T06:04:23.224Z,949.55
2018-01-16T06:05:32.408Z,949.66
2018-01-16T06:06:42.114Z,949.62
2018-01-16T06:07:51.837Z,949.7
2018-01-16T06:09:01.546Z,949.68
2018-01-16T06:10:11.257Z,949.68
2018-01-16T06:11:20.804Z,949.59
2018-01-16T06:12:30.787Z,949.58
2018-01-16T06:13:40.758Z,949.57
2018-01-16T06:14:50.477Z,949.54
2018-01-16T06:16:00.194Z,949.58
2018-01-16T06:17:10.168Z,949.46
2018-01-16T06:18:19.880Z,949.38
2018-01-16T06:19:29.596Z,949.36
2018-01-16T06:20:39.574Z,949.39
2018-01-16T06:21:49.290Z,949.39
2018-01-16T06:22:59.017Z,949.28
2018-01-16T06:24:08.993Z,949.33
2018-01-16T06:25:18.702Z,949.35
2018-01-16T06:26:28.722Z,949.25
2018-01-16T06:27:38.705Z,949.3
2018-01-16T06:28:48.200Z,949.3
2018-01-16T06:29:58.173Z,949.27
2018-01-16T06:31:07.884Z,949.27
2018-01-16T06:32:17.861Z,949.18
2018-01-16T06:33:27.833Z,949.16
2018-01-16T06:34:37.805Z,949.07
2018-01-16T06:35:47.253Z,949.09
2018-01-16T06:36:57.231Z,949.11
2018-01-16T06:38:06.947Z,949.14
2018-01-16T06:39:16.920Z,949.08
2018-01-16T06:40:26.678Z,949.1
2018-01-16T06:41:36.391Z,949.12
2018-01-16T06:42:46.102Z,949.1
2018-01-16T06:43:56.081Z,949.09
2018-01-16T06:45:06.054Z,949.13
2018-01-16T06:46:15.765Z,949.09
2018-01-16T06:47:25.276Z,949.11
2018-01-16T06:48:35.263Z,948.99
2018-01-16T06:49:45.238Z,949.05
2018-01-16T06:50:55.223Z,949.1
2018-01-16T06:52:04.943Z,949.11
2018-01-16T06:53:14.388Z,949.11
2018-01-16T06:54:23.841Z,949
2018-01-16T06:55:33.287Z,948.92
2018-01-16T06:56:43.271Z,949.07
2018-01-16T06:57:52.979Z,949.07
2018-01-16T06:59:02.692Z,948.99
2018-01-16T07:00:12.670Z,948.96
2018-01-16T07:01:22.392Z,948.94
2018-01-16T07:02:32.369Z,948.85
2018-01-16T07:03:42.081Z,948.83
2018-01-16T07:04:52.055Z,948.9
2018-01-16T07:06:02.030Z,948.82
2018-01-16T07:07:12.014Z,948.75
2018-01-16T07:08:21.990Z,948.9
2018-01-16T07:09:32.065Z,948.94
2018-01-16T07:10:41.512Z,948.92
2018-01-16T07:11:51.225Z,948.93
2018-01-16T07:13:01.212Z,948.91
2018-01-16T07:14:11.188Z,948.89
2018-01-16T07:15:21.257Z,948.93
2018-01-16T07:16:31.236Z,948.84
2018-01-16T07:17:41.223Z,948.81
2018-01-16T07:18:50.931Z,948.77
2018-01-16T07:20:00.378Z,948.76
2018-01-16T07:21:10.352Z,948.73
2018-01-16T07:22:20.069Z,948.72
2018-01-16T07:23:29.778Z,948.75
2018-01-16T07:24:39.229Z,948.65
2018-01-16T07:25:48.949Z,948.8
2018-01-16T07:26:58.955Z,948.69
2018-01-16T07:28:08.935Z,948.75
2018-01-16T07:29:18.912Z,948.72
2018-01-16T07:30:28.620Z,948.63
2018-01-16T07:31:38.602Z,948.62
2018-01-16T07:32:48.316Z,948.73
2018-01-16T07:33:58.028Z,948.67
2018-01-16T07:35:08.015Z,948.7
2018-01-16T07:36:17.724Z,948.58
2018-01-16T07:37:27.698Z,948.61
2018-01-16T07:38:37.414Z,948.68
2018-01-16T07:39:47.397Z,948.66
2018-01-16T07:40:57.115Z,948.62
2018-01-16T07:42:07.097Z,948.64
2018-01-16T07:43:16.841Z,948.6
2018-01-16T07:44:26.287Z,948.57
2018-01-16T07:45:36.049Z,948.55
2018-01-16T07:46:45.495Z,948.58
2018-01-16T07:47:55.216Z,948.53
2018-01-16T07:49:04.926Z,948.47
2018-01-16T07:50:14.640Z,948.47
2018-01-16T07:51:24.623Z,948.43
2018-01-16T07:52:34.597Z,948.42
2018-01-16T07:53:44.309Z,948.43
2018-01-16T07:54:54.283Z,948.39
2018-01-16T07:56:04.259Z,948.44
2018-01-16T07:57:14.232Z,948.29
2018-01-16T07:58:24.202Z,948.29
2018-01-16T07:59:34.184Z,948.34
2018-01-16T08:00:43.907Z,948.29
2018-01-16T08:01:53.934Z,948.28
2018-01-16T08:03:03.384Z,948.28
2018-01-16T08:04:13.363Z,948.28
2018-01-16T08:05:23.331Z,948.34
2018-01-16T08:06:33.306Z,948.28
2018-01-16T08:07:43.281Z,948.28
2018-01-16T08:08:52.729Z,948.24
2018-01-16T08:10:02.703Z,948.2
2018-01-16T08:11:12.148Z,948.21
2018-01-16T08:12:21.856Z,948.17
2018-01-16T08:13:31.881Z,948.06
2018-01-16T08:14:41.595Z,948.11
2018-01-16T08:15:51.569Z,948.17
2018-01-16T08:17:01.543Z,948.19
2018-01-16T08:18:11.262Z,948.18
2018-01-16T08:19:21.247Z,948.18
2018-01-16T08:20:31.226Z,948.18
2018-01-16T08:21:41.197Z,948.17
2018-01-16T08:22:50.903Z,948.19
2018-01-16T08:24:00.618Z,948.09
2018-01-16T08:25:10.331Z,948.15
2018-01-16T08:26:20.313Z,948.12
2018-01-16T08:27:30.284Z,948.15
2018-01-16T08:28:40.254Z,948.1
2018-01-16T08:29:49.703Z,948.09
2018-01-16T08:30:59.411Z,948.09
2018-01-16T08:32:08.859Z,948.02
2018-01-16T08:33:18.308Z,947.96
2018-01-16T08:34:28.278Z,948.01
2018-01-16T08:35:37.986Z,948.01
2018-01-16T08:36:47.434Z,947.98
2018-01-16T08:37:57.407Z,947.96
2018-01-16T08:39:07.167Z,947.9
2018-01-16T08:40:17.143Z,947.96
2018-01-16T08:41:27.120Z,947.93
2018-01-16T08:42:36.886Z,948
2018-01-16T08:43:46.596Z,947.85
2018-01-16T08:44:56.306Z,947.91
2018-01-16T08:46:06.022Z,947.95
2018-01-16T08:47:15.469Z,947.89
2018-01-16T08:48:25.484Z,947.87
2018-01-16T08:49:34.927Z,947.85
2018-01-16T08:50:44.902Z,947.87
2018-01-16T08:51:54.877Z,947.89
2018-01-16T08:53:04.855Z,947.91
2018-01-16T08:54:14.829Z,947.91
2018-01-16T08:55:24.016Z,947.97
2018-01-16T08:56:33.998Z,947.93
2018-01-16T08:57:43.987Z,947.89
2018-01-16T08:58:53.465Z,947.84
2018-01-16T09:00:03.457Z,947.87
2018-01-16T09:01:13.171Z,947.84
2018-01-16T09:02:22.620Z,947.78
2018-01-16T09:03:32.604Z,947.73
2018-01-16T09:04:42.576Z,947.69
2018-01-16T09:05:52.125Z,947.8
2018-01-16T09:07:01.840Z,947.63
2018-01-16T09:08:11.819Z,947.8
2018-01-16T09:09:21.799Z,947.79
2018-01-16T09:10:31.776Z,947.75
2018-01-16T09:11:41.268Z,947.76
2018-01-16T09:12:51.363Z,947.75
2018-01-16T09:14:00.809Z,947.76
2018-01-16T09:15:10.521Z,947.75
2018-01-16T09:16:20.500Z,947.66
2018-01-16T09:17:30.211Z,947.73
2018-01-16T09:18:39.929Z,947.68
2018-01-16T09:19:49.637Z,947.69
2018-01-16T09:20:59.085Z,947.64
2018-01-16T09:22:09.065Z,947.63
2018-01-16T09:23:18.512Z,947.6
2018-01-16T09:24:28.490Z,947.6
2018-01-16T09:25:38.203Z,947.5
2018-01-16T09:26:48.185Z,947.58
2018-01-16T09:27:57.895Z,947.61
2018-01-16T09:29:07.659Z,947.58
2018-01-16T09:30:17.647Z,947.61
2018-01-16T09:31:27.628Z,947.55
2018-01-16T09:32:37.341Z,947.58
2018-01-16T09:33:47.061Z,947.58
2018-01-16T09:34:57.039Z,947.57
2018-01-16T09:36:06.496Z,947.53
2018-01-16T09:37:15.690Z,947.47
2018-01-16T09:38:25.401Z,947.39
2018-01-16T09:39:35.126Z,947.43
2018-01-16T09:40:45.101Z,947.41
2018-01-16T09:41:55.078Z,947.4
2018-01-16T09:43:04.792Z,947.43
2018-01-16T09:44:14.508Z,947.48
2018-01-16T09:45:24.490Z,947.4
2018-01-16T09:46:35.468Z,947.43
2018-01-16T09:47:45.451Z,947.41
2018-01-16T09:48:54.628Z,947.36
2018-01-16T09:50:04.359Z,947.35
2018-01-16T09:51:13.558Z,947.3
2018-01-16T09:52:23.541Z,947.36
2018-01-16T09:53:33.251Z,947.3
2018-01-16T09:54:43.242Z,947.34
2018-01-16T09:55:53.226Z,947.34
2018-01-16T09:57:03.212Z,947.37
2018-01-16T09:58:13.248Z,947.34
2018-01-16T09:59:23.012Z,947.39
2018-01-16T10:00:32.726Z,947.27
2018-01-16T10:01:42.710Z,947.29
2018-01-16T10:02:52.688Z,947.27
2018-01-16T10:04:02.664Z,947.28
2018-01-16T10:05:12.375Z,947.23
2018-01-16T10:06:22.355Z,947.28
2018-01-16T10:07:32.331Z,947.26
2018-01-16T10:08:42.463Z,947.24
2018-01-16T10:09:52.279Z,947.19
2018-01-16T10:11:01.996Z,947.16
2018-01-16T10:12:11.710Z,947.22
2018-01-16T10:13:21.690Z,947.11
2018-01-16T10:14:31.416Z,947.09
2018-01-16T10:15:40.967Z,947.16
2018-01-16T10:16:50.421Z,947.08
2018-01-16T10:17:59.867Z,947.05
2018-01-16T10:19:09.844Z,947.02
2018-01-16T10:20:19.562Z,947.09
2018-01-16T10:21:29.283Z,947.03
2018-01-16T10:22:38.993Z,947
2018-01-16T10:23:48.712Z,946.96
2018-01-16T10:24:58.423Z,946.97
2018-01-16T10:26:08.399Z,946.98
2018-01-16T10:27:18.111Z,947
2018-01-16T10:28:27.558Z,946.96
2018-01-16T10:29:37.542Z,946.93
2018-01-16T10:30:47.254Z,946.98
2018-01-16T10:31:57.247Z,946.96
2018-01-16T10:33:07.011Z,946.97
2018-01-16T10:34:16.205Z,946.96
2018-01-16T10:35:25.927Z,946.85
2018-01-16T10:36:35.644Z,946.84
2018-01-16T10:37:45.622Z,946.85
2018-01-16T10:38:55.609Z,946.86
2018-01-16T10:40:05.593Z,946.78
2018-01-16T10:41:15.621Z,946.8
2018-01-16T10:42:25.660Z,946.82
2018-01-16T10:43:35.631Z,946.74
2018-01-16T10:44:45.347Z,946.72
2018-01-16T10:45:55.326Z,946.59
2018-01-16T10:47:05.303Z,946.68
2018-01-16T10:48:15.012Z,946.61
2018-01-16T10:49:24.988Z,946.64
2018-01-16T10:50:34.701Z,946.61
2018-01-16T10:51:44.157Z,946.62
2018-01-16T10:52:54.136Z,946.64
2018-01-16T10:54:03.588Z,946.63
2018-01-16T10:55:13.571Z,946.66
2018-01-16T10:56:23.120Z,946.63
2018-01-16T10:57:33.098Z,946.61
2018-01-16T10:58:43.076Z,946.61
2018-01-16T10:59:52.787Z,946.52
2018-01-16T11:01:02.506Z,946.51
2018-01-16T11:02:12.479Z,946.55
2018-01-16T11:03:22.190Z,946.57
2018-01-16T11:04:32.174Z,946.56
2018-01-16T11:05:42.150Z,946.49
2018-01-16T11:06:52.125Z,946.49
2018-01-16T11:08:01.947Z,946.51
2018-01-16T11:09:11.663Z,946.48
2018-01-16T11:10:21.638Z,946.44
2018-01-16T11:11:31.347Z,946.5
2018-01-16T11:12:41.331Z,946.43
2018-01-16T11:13:51.046Z,946.48
2018-01-16T11:15:01.020Z,946.41
2018-01-16T11:16:10.740Z,946.36
2018-01-16T11:17:20.451Z,946.44
2018-01-16T11:18:30.167Z,946.45
2018-01-16T11:19:39.880Z,946.45
2018-01-16T11:20:49.860Z,946.4
2018-01-16T11:21:59.572Z,946.33
2018-01-16T11:23:09.282Z,946.35
2018-01-16T11:24:19.256Z,946.36
2018-01-16T11:25:28.702Z,946.34
2018-01-16T11:26:38.678Z,946.36
2018-01-16T11:27:48.397Z,946.31
2018-01-16T11:28:58.372Z,946.34
2018-01-16T11:30:08.089Z,946.36
2018-01-16T11:31:18.119Z,946.19
2018-01-16T11:32:27.568Z,946.25
2018-01-16T11:33:37.562Z,946.25
2018-01-16T11:34:47.545Z,946.23
2018-01-16T11:35:57.258Z,946.16
2018-01-16T11:37:07.292Z,946.08
2018-01-16T11:38:17.266Z,946.16
2018-01-16T11:39:26.715Z,946.14
2018-01-16T11:40:36.695Z,946.01
2018-01-16T11:41:46.407Z,946.07
2018-01-16T11:42:56.436Z,945.99
2018-01-16T11:44:06.147Z,946
2018-01-16T11:45:15.333Z,946.01
2018-01-16T11:46:25.310Z,945.88
2018-01-16T11:47:35.023Z,945.89
2018-01-16T11:48:44.735Z,945.89
2018-01-16T11:49:54.181Z,945.86
2018-01-16T11:51:03.632Z,945.86
2018-01-16T11:52:13.614Z,945.9
2018-01-16T11:53:23.329Z,945.85
2018-01-16T11:54:33.312Z,945.88
2018-01-16T11:55:43.299Z,945.86
2018-01-16T11:56:53.330Z,945.81
2018-01-16T11:58:03.311Z,945.85
2018-01-16T11:59:13.298Z,945.81
2018-01-16T12:00:23.273Z,945.76
2018-01-16T12:01:33.262Z,945.79
2018-01-16T12:02:42.981Z,945.78
2018-01-16T12:03:52.693Z,945.65
2018-01-16T12:05:02.668Z,945.61
2018-01-16T12:06:12.383Z,945.61
2018-01-16T12:07:22.367Z,945.68
2018-01-16T12:08:32.081Z,945.59
2018-01-16T12:09:42.062Z,945.51
2018-01-16T12:10:51.822Z,945.56
2018-01-16T12:12:01.796Z,945.58
2018-01-16T12:13:11.524Z,945.49
2018-01-16T12:14:21.503Z,945.52
2018-01-16T12:15:31.482Z,945.5
2018-01-16T12:16:41.465Z,945.52
2018-01-16T12:17:50.918Z,945.46
2018-01-16T12:19:00.959Z,945.46
2018-01-16T12:20:10.687Z,945.55
2018-01-16T12:21:20.400Z,945.53
2018-01-16T12:22:30.376Z,945.5
2018-01-16T12:23:40.396Z,945.51
2018-01-16T12:24:50.207Z,945.47
2018-01-16T12:26:00.190Z,945.53
2018-01-16T12:27:09.638Z,945.43
2018-01-16T12:28:19.350Z,945.5
2018-01-16T12:29:29.071Z,945.5
2018-01-16T12:30:39.051Z,945.35
2018-01-16T12:31:48.769Z,945.41
2018-01-16T12:32:58.490Z,945.45
2018-01-16T12:34:08.470Z,945.41
2018-01-16T12:35:18.449Z,945.32
2018-01-16T12:36:28.440Z,945.36
2018-01-16T12:37:38.422Z,945.39
2018-01-16T12:38:48.399Z,945.3
2018-01-16T12:39:58.384Z,945.3
2018-01-16T12:41:08.110Z,945.3
2018-01-16T12:42:18.090Z,945.27
2018-01-16T12:43:27.807Z,945.23
2018-01-16T12:44:37.799Z,945.24
2018-01-16T12:45:47.248Z,945.28
2018-01-16T12:46:56.961Z,945.25
2018-01-16T12:48:06.679Z,945.29
2018-01-16T12:49:16.659Z,945.28
2018-01-16T12:50:26.645Z,945.28
2018-01-16T12:51:36.093Z,945.24
2018-01-16T12:52:45.542Z,945.19
2018-01-16T12:53:55.518Z,945.21
2018-01-16T12:55:05.507Z,945.23
2018-01-16T12:56:15.486Z,945.24
2018-01-16T12:57:25.208Z,945.24
2018-01-16T12:58:34.660Z,945.25
2018-01-16T12:59:44.378Z,945.29
2018-01-16T13:00:54.359Z,945.28
2018-01-16T13:02:03.816Z,945.22
2018-01-16T13:03:13.793Z,945.24
2018-01-16T13:04:23.775Z,945.24
2018-01-16T13:05:33.508Z,945.2
2018-01-16T13:06:42.955Z,945.24
2018-01-16T13:07:52.928Z,945.23
2018-01-16T13:09:02.911Z,945.18
2018-01-16T13:10:12.943Z,945.2
2018-01-16T13:11:22.919Z,945.2
2018-01-16T13:12:32.628Z,945.17
2018-01-16T13:13:42.606Z,945.16
2018-01-16T13:14:52.324Z,945.14
2018-01-16T13:16:02.305Z,945.21
2018-01-16T13:17:12.019Z,945.18
2018-01-16T13:18:21.467Z,945.12
2018-01-16T13:19:31.182Z,945.14
2018-01-16T13:20:40.891Z,945.08
2018-01-16T13:21:50.606Z,945.09
2018-01-16T13:23:00.100Z,945.1
2018-01-16T13:24:10.084Z,945.08
2018-01-16T13:25:20.068Z,945.06
2018-01-16T13:26:30.054Z,945.02
2018-01-16T13:27:40.138Z,945.02
2018-01-16T13:28:49.850Z,945.12
2018-01-16T13:29:59.833Z,945.13
2018-01-16T13:31:09.828Z,945.09
2018-01-16T13:32:19.817Z,945.07
2018-01-16T13:33:30.502Z,945.02
2018-01-16T13:34:40.217Z,945.13
2018-01-16T13:35:49.932Z,945.13
2018-01-16T13:36:59.955Z,945.13
2018-01-16T13:38:09.669Z,945.15
2018-01-16T13:39:19.641Z,945.16
2018-01-16T13:40:29.623Z,945.17
2018-01-16T13:41:39.602Z,945.15
2018-01-16T13:42:49.584Z,945.15
2018-01-16T13:43:59.300Z,945.12
2018-01-16T13:45:09.020Z,945.16
2018-01-16T13:46:18.999Z,945.17
2018-01-16T13:47:28.462Z,945.19
2018-01-16T13:48:37.913Z,945.15
2018-01-16T13:49:47.628Z,945.22
2018-01-16T13:50:57.446Z,945.11
2018-01-16T13:52:07.428Z,945.1
2018-01-16T13:53:17.406Z,945.08
2018-01-16T13:54:27.119Z,945.05
2018-01-16T13:55:36.835Z,944.99
2018-01-16T13:56:46.819Z,944.98
2018-01-16T13:57:56.862Z,945
2018-01-16T13:59:06.577Z,944.98
2018-01-16T14:00:16.029Z,945.01
2018-01-16T14:01:26.008Z,944.98
2018-01-16T14:02:35.985Z,944.99
2018-01-16T14:03:45.975Z,945
2018-01-16T14:04:55.712Z,945
2018-01-16T14:06:05.163Z,945.02
2018-01-16T14:07:14.891Z,945.03
2018-01-16T14:08:24.659Z,945.03
2018-01-16T14:09:34.646Z,945.05
2018-01-16T14:10:44.619Z,945.1
2018-01-16T14:11:54.337Z,945.06
2018-01-16T14:13:04.318Z,945.07
2018-01-16T14:14:14.399Z,945.05
2018-01-16T14:15:24.376Z,945.06
2018-01-16T14:16:34.351Z,945.04
2018-01-16T14:17:43.810Z,945.02
2018-01-16T14:18:53.793Z,945.03
2018-01-16T14:20:03.509Z,945.05
2018-01-16T14:21:13.224Z,945.05
2018-01-16T14:22:23.210Z,945.06
2018-01-16T14:23:33.194Z,945.09
2018-01-16T14:24:42.644Z,945.13
2018-01-16T14:25:52.356Z,945.08
2018-01-16T14:27:02.335Z,945.2
2018-01-16T14:28:12.349Z,945.16
2018-01-16T14:29:22.385Z,945.23
2018-01-16T14:30:32.367Z,945.23
2018-01-16T14:31:42.080Z,945.2
2018-01-16T14:32:51.792Z,945.21
2018-01-16T14:34:01.768Z,945.14
2018-01-16T14:35:11.746Z,945.16
2018-01-16T14:36:21.463Z,945.14
2018-01-16T14:37:31.175Z,945.14
2018-01-16T14:38:40.907Z,945.21
2018-01-16T14:39:50.621Z,945.23